Latest Coastal Weather Observations for Cocos Island

IDW60701

Issued at 4:13 am WST Thursday 8 December 2016 (issued every 10 minutes, with the page automatically refreshed every 10 minutes)

About coastal observations | Map of coastal stations | Coastal observations for WA | Marine services | Other Formats
Station Details ID: 200284 Name: COCOS ISLAND AIRPORT Lat: -12.19 Lon: 96.83 Height: 3.0 m
Data from the previous 72 hours. | See also: Recent months at Cocos Island
Date/Time
WST
Temp
°C
Wind Pressure Rain since
9am
mm
Weather Cloud Vis
km
Sea
Height
m
Swell
Dir  Spd
kts
Gust
kts
hPa Trend Height
m
Period
s
Dir
08/04:00am 25.6 SE 15 18 1008.9 - 0.0 - Partly cloudy 10 - - - -
08/03:30am 25.3 SE 14 17 1009.1 - 0.0 - Partly cloudy 10 - - - -
08/03:00am 25.6 SE 13 16 1009.4 - 0.0 - Partly cloudy 10 - - - -
08/02:30am 25.5 SE 13 17 1009.7 - 0.0 - Partly cloudy 10 - - - -
08/02:00am 25.7 SE 14 17 1010.0 - 0.0 - Cloudy 10 - - - -
08/01:30am 25.8 SE 14 17 1010.5 - 0.0 - Partly cloudy 10 - - - -
08/01:00am 25.7 ESE 14 19 1010.7 - 0.0 - Partly cloudy 10 - - - -
08/12:30am 25.8 ESE 13 18 1010.9 - 0.0 - Partly cloudy 10 - - - -
08/12:00am 25.8 ESE 13 18 1011.3 - 0.0 - Partly cloudy 10 - - - -
 
Date/Time
WST
Temp
°C
Wind Pressure Rain since
9am
mm
Weather Cloud Vis
km
Sea
Height
m
Swell
Dir  Spd
kts
Gust
kts
hPa Trend Height
m
Period
s
Dir
07/11:30pm 25.9 ESE 13 17 1011.2 - 0.0 - Partly cloudy 10 - - - -
07/11:00pm 25.9 SE 13 17 1011.2 - 0.0 - Cloudy 10 - - - -
07/10:30pm 25.8 ESE 13 17 1011.1 - 0.0 - Partly cloudy 10 - - - -
07/10:00pm 26.0 ESE 13 18 1010.9 - 0.0 - Partly cloudy 10 - - - -
07/09:57pm 26.0 ESE 13 18 1010.9 - 0.0 - Partly cloudy 10 - - - -
07/09:41pm 26.1 ESE 14 19 1010.8 - 0.0 - Partly cloudy 5 - - - -
07/09:30pm 26.1 ESE 15 19 1010.6 - 0.0 - Partly cloudy 10 - - - -
07/09:00pm 26.2 ESE 15 18 1010.3 - 0.0 - Partly cloudy 10 - - - -
07/08:30pm 26.4 ESE 12 16 1010.0 - 0.0 - - 10 - - - -
07/08:00pm 26.5 ESE 11 16 1009.7 - 0.0 - Mostly clear 10 - - - -
07/07:30pm 26.6 ESE 11 14 1009.5 - 0.0 - Partly cloudy 10 - - - -
07/07:00pm 26.9 SE 13 17 1009.2 - 0.0 - Partly cloudy 10 - - - -
07/06:30pm 27.4 ESE 13 17 1009.0 - 0.0 - - 10 - - - -
07/06:00pm 27.6 SE 14 17 1008.9 - 0.0 - Partly cloudy 10 - - - -
07/05:30pm 27.6 SE 13 16 1008.9 - 0.0 - Partly cloudy 10 - - - -
07/05:00pm 28.0 SE 12 16 1008.8 - 0.0 - Mostly clear 10 - - - -
07/04:30pm 28.3 SE 13 17 1008.8 - 0.0 - Mostly clear 10 - - - -
07/04:00pm 28.3 SE 13 16 1008.9 - 0.0 - Mostly clear 10 - - - -
07/03:30pm 28.1 SE 13 16 1009.1 - 0.0 - Mostly clear 10 - - - -
07/03:00pm 28.2 SE 13 16 1009.3 - 0.0 - Mostly clear 10 - - - -
07/02:30pm 28.4 SE 12 16 1009.6 - 0.0 - Mostly clear 10 - - - -
07/02:00pm 28.0 SE 12 16 1009.8 - 0.0 - Mostly clear 10 - - - -
07/01:30pm 27.9 SE 13 16 1010.3 - 0.0 - Partly cloudy 10 - - - -
07/01:00pm 28.2 SE 12 16 1010.6 - 0.0 - Partly cloudy 10 - - - -
07/12:30pm 28.0 SE 12 15 1011.0 - 0.0 - Mostly clear 10 - - - -
07/12:00pm 28.4 SE 10 13 1011.5 - 0.0 - Mostly clear 10 - - - -
07/11:30am 28.1 SE 11 13 1011.8 - 0.0 - Partly cloudy 10 - - - -
07/11:00am 27.9 SE 11 14 1011.8 - 0.0 - Mostly clear 10 - - - -
07/10:30am 27.3 SE 11 13 1011.8 - 0.0 - Mostly clear 10 - - - -
07/10:00am 27.4 SE 12 14 1011.8 - 0.0 - Partly cloudy 10 - - - -
07/09:30am 27.4 SE 10 13 1011.7 - 0.0 - Partly cloudy 10 - - - -
07/09:00am 27.0 SE 10 13 1011.6 - 0.0 - Mostly clear 10 - - - -
07/08:30am 26.3 SE 10 12 1011.5 - 0.0 - Mostly clear 10 - - - -
07/08:00am 25.7 SE 9 11 1011.2 - 0.0 - Mostly clear 10 - - - -
07/07:30am 25.3 SE 7 9 1011.0 - 0.0 - Partly cloudy 10 - - - -
07/07:00am 24.9 SE 9 13 1010.8 - 0.0 - Partly cloudy 10 - - - -
07/06:30am 25.0 SE 9 12 1010.3 - 0.0 - Partly cloudy 10 - - - -
07/06:00am 25.1 SE 9 12 1010.0 - 0.0 - Partly cloudy 10 - - - -
07/05:30am 25.1 SE 10 14 1009.6 - 0.0 - Partly cloudy 10 - - - -
07/05:00am 25.0 SSE 9 13 1009.4 - 0.0 - Mostly clear 10 - - - -
07/04:30am 25.0 SSE 9 11 1009.5 - 0.0 - Partly cloudy 10 - - - -
07/04:00am 25.2 SE 10 13 1009.8 - 0.0 - Partly cloudy 10 - - - -
07/03:30am 25.3 SE 11 15 1009.8 - 0.0 - Partly cloudy 10 - - - -
07/03:00am 25.3 SE 10 13 1009.8 - 0.0 - - 10 - - - -
07/02:30am 25.4 SE 11 14 1010.0 - 0.0 - - 10 - - - -
07/02:00am 25.5 SE 9 14 1010.3 - 0.0 - - 10 - - - -
07/01:30am 25.4 SE 10 14 1010.6 - 0.0 - - 10 - - - -
07/01:00am 25.8 SE 12 15 1010.8 - 0.0 - - 10 - - - -
07/12:30am 25.9 SE 11 13 1011.2 - 0.0 - - 10 - - - -
07/12:00am 25.9 SE 11 14 1011.3 - 0.0 - - 10 - - - -
 
Date/Time
WST
Temp
°C
Wind Pressure Rain since
9am
mm
Weather Cloud Vis
km
Sea
Height
m
Swell
Dir  Spd
kts
Gust
kts
hPa Trend Height
m
Period
s
Dir
06/11:30pm 26.0 SE 13 16 1011.4 - 0.0 - - 10 - - - -
06/11:00pm 26.1 SE 13 16 1011.4 - 0.0 - - 10 - - - -
06/10:30pm 26.2 SE 13 18 1011.3 - 0.0 - - 10 - - - -
06/10:00pm 26.2 ESE 13 16 1011.2 - 0.0 - - 10 - - - -
06/09:30pm 26.3 ESE 14 17 1011.0 - 0.0 - - 10 - - - -
06/09:00pm 26.4 ESE 13 17 1010.7 - 0.0 - Partly cloudy 10 - - - -
06/08:30pm 26.2 ESE 12 17 1010.3 - 0.0 - Partly cloudy 10 - - - -
06/08:00pm 26.2 SE 14 17 1010.1 - 0.0 - Mostly clear 10 - - - -
06/07:30pm 26.3 SE 15 18 1010.0 - 0.0 - Partly cloudy 10 - - - -
06/07:00pm 26.5 SE 15 19 1009.8 - 0.0 - Partly cloudy 10 - - - -
06/06:30pm 26.8 SE 14 19 1009.6 - 0.0 - Partly cloudy 10 - - - -
06/06:00pm 26.3 SE 14 19 1009.4 - 0.0 - Partly cloudy 10 - - - -
06/05:30pm 27.2 SE 14 19 1009.1 - 0.0 - - 10 - - - -
06/05:00pm 27.1 SE 14 19 1009.2 - 0.0 - Mostly clear 10 - - - -
06/04:30pm 27.7 SE 14 18 1009.2 - 0.0 - Partly cloudy 10 - - - -
06/04:00pm 28.0 ESE 14 18 1009.4 - 0.0 - Partly cloudy 10 - - - -
06/03:30pm 27.8 ESE 14 18 1009.7 - 0.0 - Partly cloudy 10 - - - -
06/03:00pm 27.8 SE 12 16 1009.8 - 0.0 - Partly cloudy 10 - - - -
06/02:30pm 28.3 SE 12 16 1010.1 - 0.0 - Partly cloudy 10 - - - -
06/02:00pm 28.3 SE 12 17 1010.3 - 0.0 - Mostly clear 10 - - - -
06/01:30pm 28.1 SE 13 17 1010.6 - 0.0 - Mostly clear 10 - - - -
06/01:00pm 28.5 SE 13 16 1011.0 - 0.0 - Mostly clear 10 - - - -
06/12:30pm 28.4 SE 13 16 1011.2 - 0.0 - Mostly clear 10 - - - -
06/12:00pm 27.9 SE 14 18 1011.6 - 0.0 - Mostly clear 10 - - - -
06/11:30am 28.1 SE 15 18 1012.0 - 0.0 - Mostly clear 10 - - - -
06/11:00am 27.3 SE 14 17 1012.1 - 0.0 - Mostly clear 10 - - - -
06/10:30am 27.4 SE 15 19 1012.2 - 0.0 - Mostly clear 10 - - - -
06/10:00am 27.1 SE 14 19 1012.1 - 0.0 - Partly cloudy 10 - - - -
06/09:30am 26.5 SE 16 21 1012.1 - 0.0 - Partly cloudy 10 - - - -
06/09:00am 26.4 ESE 15 19 1011.9 - 0.0 - Partly cloudy 10 - - - -
06/08:30am 26.1 SE 16 20 1011.8 - 0.0 - Partly cloudy 10 - - - -
06/08:00am 25.6 SE 13 19 1011.5 - 0.0 - Cloudy 10 - - - -
06/07:30am 25.5 SE 14 18 1011.3 - 0.0 - Partly cloudy 10 - - - -
06/07:00am 25.5 ESE 12 16 1011.2 - 0.0 - Partly cloudy 10 - - - -
06/06:30am 25.0 SE 11 14 1010.9 - 0.0 - Partly cloudy 10 - - - -
06/06:00am 25.2 SSE 11 16 1010.7 - 0.0 - Partly cloudy 10 - - - -
06/05:30am 25.1 SSE 11 14 1010.5 - 0.0 - Partly cloudy 10 - - - -
06/05:00am 24.9 SE 10 15 1010.6 - 0.0 - - 10 - - - -
06/04:34am 25.3 SE 13 17 1010.8 - 0.0 - Partly cloudy 10 - - - -
06/04:30am 25.1 SE 13 17 1010.8 - 0.0 - Partly cloudy 10 - - - -
06/04:15am 25.2 SE 13 17 1010.7 - 0.0 - Partly cloudy 5 - - - -
06/04:00am 25.3 SE 13 17 1010.7 - 0.0 - Partly cloudy 10 - - - -
06/03:30am 25.4 SE 15 19 1010.9 - 0.0 - Partly cloudy 10 - - - -
06/03:00am 25.5 SE 13 17 1011.2 - 0.0 - Partly cloudy 10 - - - -
06/02:30am 25.6 SE 15 19 1011.4 - 0.0 - Partly cloudy 10 - - - -
06/02:00am 25.9 SE 17 22 1011.4 - 0.0 - Cloudy 10 - - - -
06/01:30am 26.0 SE 16 20 1011.7 - 0.0 - Partly cloudy 10 - - - -
06/01:00am 26.0 SE 16 21 1012.0 - 0.0 - Partly cloudy 10 - - - -
06/12:30am 26.1 SE 17 21 1012.3 - 0.0 - Partly cloudy 10 - - - -
06/12:00am 26.1 SE 18 23 1012.3 - 0.0 - Partly cloudy 10 - - - -
 
Date/Time
WST
Temp
°C
Wind Pressure Rain since
9am
mm
Weather Cloud Vis
km
Sea
Height
m
Swell
Dir  Spd
kts
Gust
kts
hPa Trend Height
m
Period
s
Dir
05/11:30pm 26.2 SE 18 24 1012.2 - 0.0 - Partly cloudy 10 - - - -
05/11:00pm 26.2 SE 17 23 1012.1 - 0.0 - Cloudy 10 - - - -
05/10:30pm 26.3 ESE 15 22 1012.1 - 0.0 - Partly cloudy 10 - - - -
05/10:00pm 26.3 SE 17 21 1011.9 - 0.0 - Partly cloudy 10 - - - -
05/09:30pm 26.3 SE 18 23 1011.5 - 0.0 - Partly cloudy 10 - - - -
05/09:00pm 26.3 SE 17 22 1011.3 - 0.0 - Partly cloudy 10 - - - -
05/08:30pm 26.3 SE 17 22 1011.1 - 0.0 - Partly cloudy 10 - - - -
05/08:18pm 26.3 SE 17 22 1010.9 - 0.0 - Partly cloudy 10 - - - -
05/08:00pm 26.4 SE 16 20 1010.5 - 0.0 - - 6 - - - -
05/07:55pm 26.3 SE 17 21 1010.6 - 0.0 - - 5 - - - -
05/07:30pm 26.5 SE 18 23 1010.3 - 0.0 - Partly cloudy 10 - - - -
05/07:00pm 26.7 SSE 15 21 1010.0 - 0.0 - Partly cloudy 10 - - - -
05/06:30pm 27.1 SSE 16 20 1009.8 - 0.0 - - 10 - - - -
05/06:00pm 27.6 SSE 15 21 1009.7 - 0.0 - - 10 - - - -
05/05:30pm 27.6 SE 16 21 1009.6 - 0.0 - - 10 - - - -
05/05:00pm 27.7 SE 16 23 1009.5 - 0.0 - Partly cloudy 10 - - - -
05/04:30pm 28.3 SE 17 22 1009.5 - 0.0 - Mostly clear 10 - - - -
05/04:00pm 28.2 SE 17 21 1009.7 - 0.0 - Mostly clear 10 - - - -
05/03:30pm 28.6 SE 15 20 1009.9 - 0.0 - Partly cloudy 10 - - - -
05/03:00pm 28.0 SE 16 21 1010.3 - 0.0 - Partly cloudy 10 - - - -
05/02:30pm 28.5 SE 16 21 1010.5 - 0.0 - Partly cloudy 10 - - - -
05/02:00pm 27.8 SE 15 19 1010.8 - 0.0 - Partly cloudy 10 - - - -
05/01:30pm 28.6 SE 15 19 1011.1 - 0.0 - Mostly clear 10 - - - -
05/01:00pm 28.8 SE 16 19 1011.3 - 0.0 - Mostly clear 10 - - - -
05/12:30pm 28.5 SE 15 19 1011.6 - 0.0 - Mostly clear 10 - - - -
05/12:00pm 27.9 SE 13 17 1011.8 - 0.0 - Mostly clear 10 - - - -
05/11:30am 28.0 SE 14 18 1012.0 - 0.0 - Mostly clear 10 - - - -
05/11:00am 28.0 SE 14 18 1011.8 - 0.0 - Mostly clear 10 - - - -
05/10:30am 27.9 SE 14 17 1012.1 - 0.0 - Mostly clear 10 - - - -
05/10:00am 27.7 SE 13 19 1012.2 - 0.0 - Mostly clear 10 - - - -
05/09:30am 27.6 SE 13 17 1012.0 - 0.0 - Mostly clear 10 - - - -
05/09:00am 26.8 SE 13 16 1011.7 - 0.0 - Mostly clear 10 - - - -
05/08:30am 26.5 SE 12 16 1011.6 - 0.0 - Mostly clear 10 - - - -
05/08:00am 26.0 SE 11 15 1011.5 - 0.0 - Partly cloudy 10 - - - -
05/07:30am 25.6 SE 11 15 1011.2 - 0.0 - Partly cloudy 10 - - - -
05/07:00am 25.4 SE 12 15 1010.8 - 0.0 - Partly cloudy 10 - - - -
05/06:30am 25.3 SE 11 15 1010.4 - 0.0 - - 10 - - - -
05/06:00am 25.4 SSE 10 13 1010.2 - 0.0 - Partly cloudy 10 - - - -

Other Formats:

Comma delimited format used in spreadsheet applications
http://www.bom.gov.au/fwo/IDW60701/IDW60701.96996.axf

JavaScript Object Notation format (JSON) in row-major order
http://www.bom.gov.au/fwo/IDW60701/IDW60701.96996.json